createdAt,value
2022-09-09T00:01:51.246Z,9.32
2022-09-09T00:05:55.868Z,9.75
2022-09-09T00:10:23.967Z,10.38
2022-09-09T00:15:04.269Z,10.00
2022-09-09T00:19:32.740Z,11.85
2022-09-09T00:23:45.440Z,9.95
2022-09-09T00:27:52.101Z,9.93
2022-09-09T00:32:01.163Z,10.80
2022-09-09T00:36:04.349Z,10.18
2022-09-09T00:40:38.004Z,10.75
2022-09-09T00:44:51.234Z,10.38
2022-09-09T00:48:59.678Z,10.88
2022-09-09T00:57:32.922Z,10.90
2022-09-09T01:01:36.715Z,10.30
2022-09-09T01:06:16.510Z,12.50
2022-09-09T01:14:39.670Z,9.90
2022-09-09T01:18:47.941Z,13.15
2022-09-09T01:23:05.078Z,12.37
2022-09-09T01:27:11.762Z,12.07
2022-09-09T01:31:19.729Z,11.82
2022-09-09T01:35:45.829Z,13.80
2022-09-09T01:39:48.690Z,12.98
2022-09-09T01:43:56.206Z,13.00
2022-09-09T01:47:59.213Z,15.85
2022-09-09T01:52:15.658Z,13.68
2022-09-09T01:56:42.579Z,13.38
2022-09-09T02:01:16.489Z,14.32
2022-09-09T02:05:25.403Z,15.00
2022-09-09T02:09:31.785Z,12.65
2022-09-09T02:13:38.489Z,13.85
2022-09-09T02:17:43.602Z,12.65
2022-09-09T02:25:59.119Z,12.88
2022-09-09T02:30:04.485Z,13.52
2022-09-09T02:34:17.342Z,15.65
2022-09-09T02:38:21.974Z,15.68
2022-09-09T02:42:41.130Z,15.93
2022-09-09T02:47:17.673Z,16.30
2022-09-09T02:51:33.727Z,14.60
2022-09-09T02:55:51.401Z,15.13
2022-09-09T02:59:59.858Z,17.65
2022-09-09T03:04:02.801Z,16.67
2022-09-09T03:08:09.274Z,14.80
2022-09-09T03:12:12.483Z,14.85
2022-09-09T03:16:16.513Z,12.95
2022-09-09T03:20:22.617Z,15.45
2022-09-09T03:24:27.124Z,16.08
2022-09-09T03:28:32.598Z,14.48
2022-09-09T03:32:38.022Z,17.25
2022-09-09T03:36:40.303Z,17.17
2022-09-09T03:40:50.457Z,16.08
2022-09-09T03:44:52.730Z,21.17
2022-09-09T03:48:59.253Z,18.35
2022-09-09T03:53:01.504Z,17.02
2022-09-09T03:57:05.677Z,14.00
2022-09-09T04:01:14.518Z,15.40
2022-09-09T04:05:18.867Z,11.95
2022-09-09T04:09:23.042Z,10.52
2022-09-09T04:13:27.582Z,10.30
2022-09-09T04:17:31.298Z,9.90
2022-09-09T04:21:33.897Z,11.35
2022-09-09T04:25:37.494Z,10.20
2022-09-09T04:29:39.708Z,11.70
2022-09-09T04:33:41.791Z,14.95
2022-09-09T04:37:46.100Z,14.43
2022-09-09T04:41:48.381Z,11.75
2022-09-09T04:45:52.504Z,15.10
2022-09-09T04:49:57.771Z,11.20
2022-09-09T04:54:01.420Z,9.15
2022-09-09T04:58:08.313Z,10.35
2022-09-09T05:02:11.478Z,11.57
2022-09-09T05:06:16.904Z,9.63
2022-09-09T05:14:45.608Z,9.57
2022-09-09T05:18:48.522Z,10.52
2022-09-09T05:22:55.190Z,10.75
2022-09-09T05:27:01.017Z,9.57
2022-09-09T05:31:13.858Z,9.10
2022-09-09T05:35:17.438Z,10.05
2022-09-09T05:39:19.692Z,11.60
2022-09-09T05:43:22.278Z,9.38
2022-09-09T05:47:24.527Z,8.65
2022-09-09T05:51:31.131Z,7.88
2022-09-09T05:55:35.964Z,9.18
2022-09-09T05:59:39.785Z,8.73
2022-09-09T06:03:44.308Z,7.90
2022-09-09T06:07:47.034Z,10.02
2022-09-09T06:11:49.610Z,11.80
2022-09-09T06:15:55.044Z,9.90
2022-09-09T06:19:57.317Z,9.20
2022-09-09T06:24:01.270Z,9.52
2022-09-09T06:28:03.942Z,12.02
2022-09-09T06:32:06.406Z,12.38
2022-09-09T06:36:19.202Z,11.48
2022-09-09T06:40:21.625Z,10.57
2022-09-09T06:44:23.997Z,11.35
2022-09-09T06:48:27.462Z,11.27
2022-09-09T06:52:39.084Z,15.43
2022-09-09T06:56:51.101Z,13.52
2022-09-09T07:01:06.996Z,21.38
2022-09-09T07:05:10.831Z,12.18
2022-09-09T07:09:16.687Z,13.45
2022-09-09T07:13:26.561Z,13.30
2022-09-09T07:17:30.290Z,17.05
2022-09-09T07:21:35.716Z,13.27
2022-09-09T07:25:37.784Z,16.35
2022-09-09T07:29:40.124Z,13.88
2022-09-09T07:33:45.737Z,16.00
2022-09-09T07:37:51.146Z,15.38
2022-09-09T07:41:55.733Z,13.13
2022-09-09T07:46:00.037Z,15.15
2022-09-09T07:50:02.703Z,17.40
2022-09-09T07:54:10.547Z,14.10
2022-09-09T07:58:14.225Z,14.05
2022-09-09T08:02:16.638Z,13.77
2022-09-09T08:06:20.002Z,12.30
2022-09-09T08:10:22.454Z,12.65
2022-09-09T08:14:26.827Z,17.52
2022-09-09T08:18:29.050Z,17.77
2022-09-09T08:22:32.177Z,13.43
2022-09-09T08:26:38.386Z,13.18
2022-09-09T08:30:41.700Z,11.38
2022-09-09T08:34:46.744Z,14.65
2022-09-09T08:38:57.437Z,13.35
2022-09-09T08:43:04.033Z,14.55
2022-09-09T08:47:24.775Z,20.42
2022-09-09T08:51:31.234Z,13.18
2022-09-09T08:55:44.609Z,15.52
2022-09-09T08:59:47.714Z,19.27
2022-09-09T09:04:03.854Z,18.45
2022-09-09T09:08:25.019Z,16.25
2022-09-09T09:12:32.257Z,15.73
2022-09-09T09:16:49.395Z,15.80
2022-09-09T09:21:00.159Z,20.00
2022-09-09T09:25:07.107Z,17.88
2022-09-09T09:29:18.874Z,21.60
2022-09-09T09:33:24.379Z,17.88
2022-09-09T09:37:33.025Z,22.13
2022-09-09T09:41:44.566Z,17.88
2022-09-09T09:46:07.000Z,19.52
2022-09-09T09:50:20.250Z,24.83
2022-09-09T09:54:31.080Z,24.38
2022-09-09T09:58:45.925Z,25.70
2022-09-09T10:02:52.987Z,21.63
2022-09-09T10:06:59.517Z,20.70
2022-09-09T10:11:15.142Z,24.98
2022-09-09T10:15:54.523Z,22.70
2022-09-09T10:20:09.138Z,19.40
2022-09-09T10:24:20.457Z,23.30
2022-09-09T10:28:48.637Z,28.90
2022-09-09T10:33:04.545Z,26.33
2022-09-09T10:37:23.781Z,23.73
2022-09-09T10:41:47.416Z,24.08
2022-09-09T10:46:10.677Z,25.30
2022-09-09T10:50:21.499Z,28.88
2022-09-09T10:54:49.760Z,22.27
2022-09-09T10:59:07.634Z,22.52
2022-09-09T11:03:27.004Z,27.27
2022-09-09T11:07:57.750Z,21.45
2022-09-09T11:12:03.703Z,34.50
2022-09-09T11:16:15.342Z,25.45
2022-09-09T11:20:17.461Z,27.15
2022-09-09T11:24:29.517Z,31.38
2022-09-09T11:29:23.056Z,30.63
2022-09-09T11:33:51.741Z,27.10
2022-09-09T11:38:19.154Z,31.75
2022-09-09T11:42:24.237Z,31.20
2022-09-09T11:46:39.244Z,28.48
2022-09-09T11:50:41.558Z,27.77
2022-09-09T11:54:50.245Z,31.30
2022-09-09T12:03:46.091Z,31.13
2022-09-09T12:07:59.765Z,30.85
2022-09-09T12:12:14.086Z,32.47
2022-09-09T12:16:34.992Z,28.27
2022-09-09T12:20:38.313Z,28.10
2022-09-09T12:24:49.371Z,31.38
2022-09-09T12:29:06.097Z,31.92
2022-09-09T12:33:18.818Z,30.95
2022-09-09T12:37:38.018Z,28.33
2022-09-09T12:45:42.576Z,26.35
2022-09-09T12:49:44.807Z,31.48
2022-09-09T12:53:47.575Z,33.92
2022-09-09T12:57:51.502Z,29.67
2022-09-09T13:02:00.527Z,32.33
2022-09-09T13:06:15.338Z,27.80
2022-09-09T13:10:36.310Z,28.10
2022-09-09T13:14:51.963Z,27.77
2022-09-09T13:18:54.235Z,31.55
2022-09-09T13:22:56.946Z,27.75
2022-09-09T13:27:04.869Z,27.27
2022-09-09T13:31:22.366Z,27.52
2022-09-09T13:35:25.405Z,31.85
2022-09-09T13:39:27.531Z,27.65
2022-09-09T13:43:32.669Z,28.40
2022-09-09T13:47:37.052Z,24.00
2022-09-09T13:51:47.899Z,28.55
2022-09-09T13:55:53.393Z,27.98
2022-09-09T14:00:06.334Z,26.95
2022-09-09T14:04:10.026Z,29.90
2022-09-09T14:08:24.961Z,28.48
2022-09-09T14:12:27.434Z,35.20
2022-09-09T14:16:30.455Z,29.45
2022-09-09T14:20:33.929Z,29.83
2022-09-09T14:24:36.365Z,30.38
2022-09-09T14:28:54.366Z,30.02
2022-09-09T14:32:58.164Z,28.77
2022-09-09T14:37:00.690Z,31.88
2022-09-09T14:41:04.489Z,32.45
2022-09-09T14:45:07.929Z,31.27
2022-09-09T14:49:11.548Z,31.17
2022-09-09T14:53:14.035Z,31.55
2022-09-09T14:57:16.167Z,33.17
2022-09-09T15:01:20.451Z,38.58
2022-09-09T15:05:23.359Z,28.38
2022-09-09T15:09:25.585Z,37.92
2022-09-09T15:13:27.937Z,31.95
2022-09-09T15:17:30.639Z,29.85
2022-09-09T15:21:35.545Z,29.45
2022-09-09T15:25:37.902Z,29.27
2022-09-09T15:29:40.110Z,30.70
2022-09-09T15:33:42.652Z,31.10
2022-09-09T15:37:44.935Z,31.33
2022-09-09T15:41:48.899Z,33.40
2022-09-09T15:45:59.728Z,29.38
2022-09-09T15:50:01.974Z,32.55
2022-09-09T15:54:04.617Z,33.72
2022-09-09T15:58:06.950Z,28.60
2022-09-09T16:02:10.783Z,29.85
2022-09-09T16:06:15.447Z,29.52
2022-09-09T16:10:17.448Z,28.00
2022-09-09T16:14:20.019Z,30.20
2022-09-09T16:18:22.461Z,27.33
2022-09-09T16:22:25.605Z,27.75
2022-09-09T16:26:32.572Z,29.83
2022-09-09T16:30:37.860Z,27.33
2022-09-09T16:34:40.497Z,29.63
2022-09-09T16:38:43.784Z,31.92
2022-09-09T16:42:45.967Z,29.65
2022-09-09T16:47:00.456Z,31.85
2022-09-09T16:51:11.858Z,34.53
2022-09-09T16:55:15.129Z,31.52
2022-09-09T16:59:22.059Z,30.23
2022-09-09T17:03:25.091Z,28.13
2022-09-09T17:07:27.562Z,28.42
2022-09-09T17:11:31.036Z,30.67
2022-09-09T17:15:33.119Z,34.20
2022-09-09T17:19:35.469Z,30.23
2022-09-09T17:23:41.615Z,31.52
2022-09-09T17:27:44.195Z,28.02
2022-09-09T17:31:47.295Z,29.27
2022-09-09T17:35:51.715Z,31.50
2022-09-09T17:39:55.736Z,29.88
2022-09-09T17:43:59.605Z,32.30
2022-09-09T17:48:01.768Z,26.88
2022-09-09T17:52:04.314Z,26.58
2022-09-09T17:56:12.545Z,26.38
2022-09-09T18:00:20.004Z,27.42
2022-09-09T18:04:22.179Z,27.40
2022-09-09T18:08:24.476Z,24.25
2022-09-09T18:12:27.881Z,25.17
2022-09-09T18:16:35.261Z,23.42
2022-09-09T18:20:37.409Z,24.75
2022-09-09T18:24:39.806Z,28.50
2022-09-09T18:28:43.860Z,23.88
2022-09-09T18:32:50.433Z,23.45
2022-09-09T18:41:00.019Z,23.60
2022-09-09T18:45:01.963Z,23.25
2022-09-09T18:49:05.534Z,21.98
2022-09-09T18:53:07.611Z,22.15
2022-09-09T18:57:10.633Z,22.65
2022-09-09T19:01:16.114Z,20.13
2022-09-09T19:05:18.336Z,24.23
2022-09-09T19:09:20.574Z,24.42
2022-09-09T19:13:23.385Z,23.35
2022-09-09T19:17:26.533Z,23.48
2022-09-09T19:21:35.886Z,22.70
2022-09-09T19:25:40.416Z,21.43
2022-09-09T19:29:45.375Z,23.25
2022-09-09T19:33:48.220Z,26.35
2022-09-09T19:37:51.235Z,24.63
2022-09-09T19:41:53.635Z,21.77
2022-09-09T19:45:58.834Z,21.58
2022-09-09T19:50:01.065Z,24.25
2022-09-09T19:54:09.584Z,27.27
2022-09-09T19:58:11.544Z,23.50
2022-09-09T20:02:16.019Z,27.65
2022-09-09T20:06:21.414Z,29.30
2022-09-09T20:10:23.579Z,28.23
2022-09-09T20:14:25.762Z,21.98
2022-09-09T20:18:33.001Z,23.10
2022-09-09T20:22:34.982Z,26.23
2022-09-09T20:26:37.673Z,21.40
2022-09-09T20:30:40.518Z,23.40
2022-09-09T20:34:47.775Z,24.98
2022-09-09T20:38:58.154Z,25.35
2022-09-09T20:43:00.485Z,23.65
2022-09-09T20:47:06.808Z,21.60
2022-09-09T20:51:10.890Z,22.52
2022-09-09T20:55:13.248Z,18.48
2022-09-09T20:59:19.124Z,21.40
2022-09-09T21:03:21.014Z,18.63
2022-09-09T21:07:23.242Z,21.98
2022-09-09T21:11:25.154Z,20.70
2022-09-09T21:15:28.182Z,21.85
2022-09-09T21:19:30.425Z,26.27
2022-09-09T21:23:32.794Z,24.40
2022-09-09T21:27:34.822Z,20.55
2022-09-09T21:31:38.194Z,25.45
2022-09-09T21:35:41.758Z,19.85
2022-09-09T21:39:44.109Z,22.20
2022-09-09T21:43:51.697Z,20.38
2022-09-09T21:47:53.869Z,18.55
2022-09-09T21:51:58.430Z,19.15
2022-09-09T21:56:02.647Z,18.02
2022-09-09T22:00:12.320Z,16.80
2022-09-09T22:04:15.153Z,19.58
2022-09-09T22:08:18.615Z,22.38
2022-09-09T22:12:21.041Z,17.92
2022-09-09T22:16:24.208Z,23.17
2022-09-09T22:20:26.457Z,20.75
2022-09-09T22:24:28.418Z,22.10
2022-09-09T22:28:35.526Z,20.25
2022-09-09T22:32:38.089Z,17.58
2022-09-09T22:36:40.705Z,25.17
2022-09-09T22:40:42.896Z,19.20
2022-09-09T22:44:45.155Z,18.60
2022-09-09T22:48:47.315Z,23.73
2022-09-09T22:52:49.523Z,19.85
2022-09-09T22:56:52.100Z,20.95
2022-09-09T23:00:58.869Z,17.85
2022-09-09T23:05:04.475Z,17.13
2022-09-09T23:09:07.431Z,16.65
2022-09-09T23:13:09.625Z,17.63
2022-09-09T23:17:17.007Z,14.60
2022-09-09T23:21:20.278Z,15.77
2022-09-09T23:25:23.077Z,17.05
2022-09-09T23:29:25.083Z,15.50
2022-09-09T23:33:27.934Z,17.05
2022-09-09T23:37:31.598Z,17.30
2022-09-09T23:41:35.935Z,16.77
2022-09-09T23:45:38.005Z,16.73
2022-09-09T23:49:40.314Z,14.52
2022-09-09T23:53:44.813Z,16.13
2022-09-09T23:57:47.175Z,16.13
